Time;durP1;ratioP1;P1;durP2;ratioP2;P2;SDS_P1;SDS_P2;PMS_P1;PMS_P2;Temp;Humidity;BMP_temperature;BMP_pressure;BME280_temperature;BME280_humidity;BME280_pressure;Samples;Min_cycle;Max_cycle;Signal;HPM_P1;HPM_P2
2022/10/09 06:57:03;;;;;;;;;;;7.40;99.90;;;;;;6275794;22;20610;-78
2022/10/09 07:27:47;;;;;;;;;;;8.70;99.90;;;;;;6308375;22;20249;-76
2022/10/09 07:51:48;;;;;;;;;;;9.80;99.90;;;;;;6182114;23;19924;-75
2022/10/09 07:54:38;;;;;;;;;;;10.10;99.90;;;;;;6156700;23;20312;-72
2022/10/09 07:57:24;;;;;;;;;;;9.70;99.90;;;;;;6132805;23;19924;-75
2022/10/09 08:03:15;;;;;;;;;;;10.30;99.90;;;;;;6181895;23;19915;-77
2022/10/09 08:05:40;;;;;;;;;;;10.50;99.90;;;;;;6157031;23;19920;-77
2022/10/09 08:08:24;;;;;;;;;;;10.60;99.90;;;;;;6197115;22;19922;-75
2022/10/09 08:13:47;;;;;;;;;;;10.90;99.90;;;;;;6269020;22;19950;-79
2022/10/09 08:16:16;;;;;;;;;;;11.00;99.90;;;;;;6257097;22;20244;-78
2022/10/09 08:18:42;;;;;;;;;;;11.00;99.90;;;;;;6253408;22;19915;-80
2022/10/09 08:24:14;;;;;;;;;;;11.40;99.90;;;;;;6260430;22;19968;-78
2022/10/09 08:26:41;;;;;;;;;;;11.50;99.90;;;;;;6253820;22;19919;-78
2022/10/09 08:29:17;;;;;;;;;;;11.60;99.90;;;;;;6253005;22;20140;-77
2022/10/09 08:41:57;;;;;;;;;;;12.10;99.90;;;;;;6307886;22;19922;-74
2022/10/09 08:44:24;;;;;;;;;;;12.00;99.90;;;;;;6255160;22;19990;-74
2022/10/09 08:47:15;;;;;;;;;;;12.20;99.90;;;;;;6280453;22;19947;-80
2022/10/09 08:50:21;;;;;;;;;;;12.30;99.90;;;;;;6280542;22;20435;-81
2022/10/09 08:53:12;;;;;;;;;;;12.40;99.90;;;;;;6162475;23;19989;-80
2022/10/09 08:58:57;;;;;;;;;;;12.70;99.90;;;;;;6183768;23;20358;-82
2022/10/09 09:08:32;;;;;;;;;;;12.90;99.90;;;;;;6213276;23;19962;-77
2022/10/09 09:18:37;;;;;;;;;;;13.30;99.90;;;;;;6123496;23;19916;-77
2022/10/09 09:21:14;;;;;;;;;;;13.30;99.90;;;;;;6073357;23;19921;-78
2022/10/09 09:23:42;;;;;;;;;;;13.50;99.90;;;;;;6075630;23;19917;-75
2022/10/09 09:26:23;;;;;;;;;;;13.60;99.90;;;;;;6119738;23;20347;-76
2022/10/09 09:35:06;;;;;;;;;;;13.80;99.90;;;;;;6115878;23;19965;-73
2022/10/09 09:37:36;;;;;;;;;;;14.00;99.90;;;;;;6274787;22;19949;-69
2022/10/09 09:40:02;;;;;;;;;;;13.90;99.90;;;;;;6256867;22;19915;-71
2022/10/09 09:42:28;;;;;;;;;;;14.00;99.90;;;;;;6281976;22;19918;-72
2022/10/09 09:45:09;;;;;;;;;;;14.10;99.90;;;;;;6256742;22;19947;-72
2022/10/09 09:47:53;;;;;;;;;;;14.20;99.90;;;;;;6256562;22;20394;-83
2022/10/09 14:00:47;;;;;;;;;;;;;;;;;;;;;
2022/10/09 14:29:11;;;;;;;;;;;;;;;;;;;;;
2022/10/09 14:35:39;;;;;;;;;;;14.60;99.90;;;;;;5843063;24;19929;-76
2022/10/09 16:02:35;;;;;;;;;;;13.90;99.90;;;;;;6257753;22;19972;-74
2022/10/09 16:05:01;;;;;;;;;;;13.80;99.90;;;;;;6253831;22;20274;-73
2022/10/09 16:07:34;;;;;;;;;;;13.80;99.90;;;;;;6254862;22;20280;-77
2022/10/09 16:10:29;;;;;;;;;;;13.70;99.90;;;;;;6259599;22;19968;-78
2022/10/09 16:13:05;;;;;;;;;;;13.60;99.90;;;;;;6257846;22;19919;-76
2022/10/09 16:16:00;;;;;;;;;;;13.50;99.90;;;;;;6231039;22;20245;-74
2022/10/09 16:36:07;;;;;;;;;;;13.10;99.90;;;;;;5952476;24;20020;-78
2022/10/09 16:45:50;;;;;;;;;;;;;;;;;;;;;
2022/10/09 16:58:47;;;;;;;;;;;12.30;99.90;;;;;;5892921;24;20031;-77
2022/10/09 17:01:26;;;;;;;;;;;12.10;99.90;;;;;;5955228;23;19919;-76
2022/10/09 17:03:55;;;;;;;;;;;12.00;99.90;;;;;;6248619;22;19999;-74
2022/10/09 17:06:24;;;;;;;;;;;11.90;99.90;;;;;;6282495;22;19964;-76
2022/10/09 17:08:54;;;;;;;;;;;11.90;99.90;;;;;;6277555;22;19926;-71
2022/10/09 17:11:20;;;;;;;;;;;11.80;99.90;;;;;;6310490;22;19903;-73
2022/10/09 17:13:46;;;;;;;;;;;11.80;99.90;;;;;;6285483;22;19942;-74
2022/10/09 17:16:13;;;;;;;;;;;11.70;99.90;;;;;;6285639;22;19907;-73
2022/10/09 17:18:41;;;;;;;;;;;11.70;99.90;;;;;;6264676;22;19915;-75
2022/10/09 17:21:08;;;;;;;;;;;11.70;99.90;;;;;;6256871;22;19922;-75
2022/10/09 17:23:37;;;;;;;;;;;11.60;99.90;;;;;;6256487;22;19919;-76
2022/10/09 17:26:10;;;;;;;;;;;11.60;99.90;;;;;;6282139;22;19915;-75
2022/10/09 17:28:36;;;;;;;;;;;11.50;99.90;;;;;;6256389;22;19915;-76
2022/10/09 17:31:06;;;;;;;;;;;11.40;99.90;;;;;;6256626;22;19918;-77
2022/10/09 17:33:40;;;;;;;;;;;11.40;99.90;;;;;;6256327;22;19915;-78
2022/10/09 17:36:15;;;;;;;;;;;11.40;99.90;;;;;;6256485;22;19914;-81
2022/10/09 17:38:44;;;;;;;;;;;11.30;99.90;;;;;;6256438;22;19922;-78
2022/10/09 17:41:25;;;;;;;;;;;11.20;99.90;;;;;;6255618;22;20384;-77
2022/10/09 17:44:30;;;;;;;;;;;11.30;99.90;;;;;;6223484;22;19923;-78
2022/10/09 17:47:15;;;;;;;;;;;;;;;;;;;;;
2022/10/09 17:50:24;;;;;;;;;;;11.20;99.90;;;;;;6249289;22;19950;-80
2022/10/09 17:53:26;;;;;;;;;;;;;;;;;;;;;
2022/10/09 18:50:11;;;;;;;;;;;10.50;99.90;;;;;;6305628;22;19964;-79
2022/10/09 20:43:56;;;;;;;;;;;10.10;99.90;;;;;;6261417;22;19931;-76
2022/10/09 20:50:00;;;;;;;;;;;10.00;99.90;;;;;;6249596;22;19915;-84
2022/10/09 20:52:54;;;;;;;;;;;10.10;99.90;;;;;;6224033;22;19915;-83
